עמוד ראשי
METAR-TAF:

METAR-TAF

שדות תעופה :

קונה, קלדוניה החדשה

קו רוחב: 21-03-12S, קו אורך: 164-50-18E, גובה: 7מטר

METAR: חסר

זמן: 23:11 (12:11 UTC)

תחזית

הדו"ח נערך לפני 1 שעות ו 11דקות, בשעה 11:00 UTC
תחזית בתוקף מ 15 ב 12 UTC עד 16 ב 12 UTC
רוח 2קשר עם כיוונים משתנים
ראות 10 קילומטר או יותר
עננים פזורים בגובה 3500רגל
הסתברות 40% :
זמנית מ -
15 ב 15 UTC עד 15 ב 20 UTC
ראות: 2500מטר
אד
הסתברות 40% :
זמנית מ -
15 ב 20 UTC עד 15 ב 24 UTC
ממטרי גשם
יעשה מ
15 ב 22 UTC עד 16 ב 01 UTC
רוח 10קשר מכיוון מערב
יעשה מ
16 ב 06 UTC עד 16 ב 08 UTC
רוח 2קשר עם כיוונים משתנים

TAF: NWWD 151100Z 1512/1612 VRB02KT 9999 SCT035 PROB40 TEMPO 1515/1520 2500 BR PROB40 TEMPO 1520/1524 SHRA BECMG 1522/1601 28010KT BECMG 1606/1608 VRB02KT

תצפיות ותחזיות מזג אוויר לגבי יותר מ- 4,000 שדות תעופה ברחבי העולם. דוחות METAR ו- TAF.

התחנות הזמינות מסומנות בנקודות צהובות ואדומות על גבי המפה.

העבר את העכבר לנקודה הצבעונית על מנת לראות את שם התחנה.

לאחר מכן, לחץ כדי לראות את תוכן ואת תחזיות מזג האוויר.

כדי לשנות את המפה: לחץ על הכפתורים הירוקים עם הפלוס השחור כדי להתקרב; על הכפתור הירוק עם המקף כדי להתרחק; או בחיצים הירוקים למפות סמוכות.


METAR-TAF: